createdAt,value
2023-04-29T00:00:01.909Z,100889.09
2023-04-29T00:03:03.685Z,100892.59
2023-04-29T00:06:05.801Z,100902.41
2023-04-29T00:09:07.465Z,100906.75
2023-04-29T00:12:10.292Z,100905.81
2023-04-29T00:15:12.048Z,100905.81
2023-04-29T00:18:14.209Z,100911.19
2023-04-29T00:21:15.953Z,100916.63
2023-04-29T00:24:17.635Z,100910.53
2023-04-29T00:27:19.301Z,100917.81
2023-04-29T00:30:20.917Z,100917.06
2023-04-29T00:33:22.592Z,100918.22
2023-04-29T00:36:24.141Z,100928.03
2023-04-29T00:39:25.937Z,100933.56
2023-04-29T00:42:29.230Z,100939.91
2023-04-29T00:45:30.816Z,100942.72
2023-04-29T00:48:33.314Z,100944.63
2023-04-29T00:51:36.817Z,100948.38
2023-04-29T00:54:39.193Z,100960.91
2023-04-29T00:57:41.228Z,100954.72
2023-04-29T01:00:44.189Z,100955.75
2023-04-29T01:03:46.048Z,100961.16
2023-04-29T01:06:53.821Z,100965.72
2023-04-29T01:10:09.947Z,100965.03
2023-04-29T01:13:46.307Z,100967.06
2023-04-29T01:17:00.016Z,100969.84
2023-04-29T01:20:02.827Z,100973.50
2023-04-29T01:23:04.544Z,100975.41
2023-04-29T01:26:06.183Z,100980.78
2023-04-29T01:29:36.724Z,100984.56
2023-04-29T01:32:47.602Z,100989.97
2023-04-29T01:36:07.523Z,100985.59
2023-04-29T01:39:26.548Z,100983.97
2023-04-29T01:42:38.243Z,100992.84
2023-04-29T01:45:41.388Z,100997.41
2023-04-29T01:48:43.577Z,101005.47
2023-04-29T01:51:45.141Z,101005.47
2023-04-29T01:54:47.273Z,101014.34
2023-04-29T01:57:48.846Z,101016.13
2023-04-29T02:00:50.554Z,101019.75
2023-04-29T02:03:52.324Z,101024.09
2023-04-29T02:06:54.138Z,101031.28
2023-04-29T02:09:55.773Z,101030.53
2023-04-29T02:12:57.290Z,101031.38
2023-04-29T02:16:07.711Z,101031.47
2023-04-29T02:19:09.235Z,101036.00
2023-04-29T02:22:12.582Z,101038.66
2023-04-29T02:25:14.774Z,101038.66
2023-04-29T02:28:16.343Z,101047.56
2023-04-29T02:31:18.028Z,101053.81
2023-04-29T02:34:19.531Z,101062.53
2023-04-29T02:37:21.276Z,101055.53
2023-04-29T02:40:25.656Z,101055.53
2023-04-29T02:43:30.910Z,101064.50
2023-04-29T02:46:33.619Z,101070.75
2023-04-29T02:49:35.153Z,101074.25
2023-04-29T02:52:36.859Z,101084.00
2023-04-29T02:55:38.387Z,101080.59
2023-04-29T02:58:40.019Z,101090.34
2023-04-29T03:01:42.011Z,101074.50
2023-04-29T03:04:43.652Z,101082.47
2023-04-29T03:07:45.220Z,101086.91
2023-04-29T03:10:46.746Z,101093.09
2023-04-29T03:13:48.290Z,101092.22
2023-04-29T03:16:49.995Z,101097.53
2023-04-29T03:19:53.425Z,101104.63
2023-04-29T03:22:55.129Z,101102.06
2023-04-29T03:25:56.846Z,101105.66
2023-04-29T03:28:59.101Z,101109.22
2023-04-29T03:32:00.805Z,101112.84
2023-04-29T03:35:02.348Z,101117.94
2023-04-29T03:38:04.075Z,101116.81
2023-04-29T03:41:05.861Z,101123.16
2023-04-29T03:44:07.525Z,101119.91
2023-04-29T03:47:09.094Z,101117.50
2023-04-29T03:50:10.840Z,101131.00
2023-04-29T03:53:13.021Z,101125.84
2023-04-29T03:56:15.870Z,101134.91
2023-04-29T03:59:18.535Z,101145.78
2023-04-29T04:02:20.149Z,101145.94
2023-04-29T04:05:25.179Z,101155.81
2023-04-29T04:08:27.171Z,101147.19
2023-04-29T04:11:29.014Z,101162.25
2023-04-29T04:14:30.678Z,101164.13
2023-04-29T04:17:32.270Z,101167.59
2023-04-29T04:20:36.895Z,101169.44
2023-04-29T04:23:41.862Z,101180.97
2023-04-29T04:26:43.754Z,101188.13
2023-04-29T04:29:45.286Z,101197.88
2023-04-29T04:32:46.874Z,101212.94
2023-04-29T04:35:48.576Z,101213.94
2023-04-29T04:38:50.093Z,101213.94
2023-04-29T04:41:51.649Z,101211.28
2023-04-29T04:44:54.020Z,101221.91
2023-04-29T04:47:55.754Z,101220.88
2023-04-29T04:50:57.380Z,101221.75
2023-04-29T04:53:58.951Z,101227.06
2023-04-29T04:57:00.535Z,101230.63
2023-04-29T05:00:02.481Z,101239.47
2023-04-29T05:03:04.313Z,101239.47
2023-04-29T05:06:06.069Z,101239.41
2023-04-29T05:09:07.706Z,101249.06
2023-04-29T05:12:09.335Z,101250.84
2023-04-29T05:15:11.387Z,101250.41
2023-04-29T05:18:12.972Z,101253.84
2023-04-29T05:21:16.526Z,101260.88
2023-04-29T05:24:19.428Z,101268.75
2023-04-29T05:27:21.197Z,101276.69
2023-04-29T05:30:23.129Z,101282.00
2023-04-29T05:33:24.792Z,101277.56
2023-04-29T05:36:28.105Z,101278.44
2023-04-29T05:39:29.657Z,101288.09
2023-04-29T05:42:31.338Z,101290.22
2023-04-29T05:45:32.906Z,101292.47
2023-04-29T05:48:34.498Z,101287.84
2023-04-29T05:51:36.169Z,101304.63
2023-04-29T05:54:37.767Z,101310.09
2023-04-29T05:57:39.327Z,101314.63
2023-04-29T06:00:41.020Z,101314.81
2023-04-29T06:03:42.655Z,101319.31
2023-04-29T06:06:44.567Z,101317.69
2023-04-29T06:09:46.234Z,101326.59
2023-04-29T06:12:50.844Z,101333.69
2023-04-29T06:15:52.515Z,101339.00
2023-04-29T06:18:54.147Z,101336.44
2023-04-29T06:21:55.926Z,101339.91
2023-04-29T06:24:57.507Z,101349.69
2023-04-29T06:27:59.100Z,101357.50
2023-04-29T06:31:00.818Z,101361.00
2023-04-29T06:34:02.343Z,101362.66
2023-04-29T06:37:04.793Z,101367.81
2023-04-29T06:40:07.511Z,101377.41
2023-04-29T06:43:09.092Z,101367.56
2023-04-29T06:46:11.481Z,101367.44
2023-04-29T06:49:13.292Z,101373.50
2023-04-29T06:52:15.030Z,101389.31
2023-04-29T06:55:17.094Z,101395.38
2023-04-29T06:58:20.013Z,101396.94
2023-04-29T07:01:22.156Z,101399.44
2023-04-29T07:04:23.782Z,101406.34
2023-04-29T07:07:25.350Z,101404.47
2023-04-29T07:10:27.777Z,101406.09
2023-04-29T07:13:29.453Z,101417.41
2023-04-29T07:16:31.624Z,101422.47
2023-04-29T07:19:33.254Z,101426.63
2023-04-29T07:22:34.800Z,101424.59
2023-04-29T07:25:36.879Z,101437.59
2023-04-29T07:28:38.545Z,101439.13
2023-04-29T07:31:40.090Z,101446.88
2023-04-29T07:34:41.692Z,101443.13
2023-04-29T07:37:44.201Z,101454.44
2023-04-29T07:40:48.472Z,101457.72
2023-04-29T07:43:50.022Z,101459.31
2023-04-29T07:46:51.566Z,101460.78
2023-04-29T07:49:53.146Z,101469.25
2023-04-29T07:52:55.331Z,101469.75
2023-04-29T07:55:56.991Z,101471.97
2023-04-29T07:59:00.198Z,101474.13
2023-04-29T08:02:01.817Z,101475.50
2023-04-29T08:05:04.341Z,101476.88
2023-04-29T08:08:06.861Z,101483.53
2023-04-29T08:11:08.490Z,101484.50
2023-04-29T08:14:10.064Z,101485.19
2023-04-29T08:17:11.659Z,101491.22
2023-04-29T08:20:13.435Z,101488.34
2023-04-29T08:23:15.751Z,101490.03
2023-04-29T08:26:17.713Z,101488.88
2023-04-29T08:29:19.555Z,101495.78
2023-04-29T08:32:21.161Z,101504.59
2023-04-29T08:35:22.906Z,101500.06
2023-04-29T08:38:25.469Z,101509.69
2023-04-29T08:41:27.462Z,101507.06
2023-04-29T08:44:30.392Z,101511.56
2023-04-29T08:47:33.186Z,101521.19
2023-04-29T08:50:40.183Z,101525.56
2023-04-29T08:53:41.784Z,101528.88
2023-04-29T08:56:47.279Z,101533.06
2023-04-29T08:59:48.935Z,101532.25
2023-04-29T09:02:52.261Z,101531.88
2023-04-29T09:05:56.180Z,101532.22
2023-04-29T09:08:59.630Z,101539.63
2023-04-29T09:12:01.152Z,101538.94
2023-04-29T09:15:03.552Z,101539.91
2023-04-29T09:18:05.969Z,101542.75
2023-04-29T09:21:23.022Z,101544.78
2023-04-29T09:24:28.692Z,101546.00
2023-04-29T09:27:30.286Z,101554.03
2023-04-29T09:30:31.822Z,101562.75
2023-04-29T09:33:50.519Z,101565.13
2023-04-29T09:36:56.997Z,101560.41
2023-04-29T09:39:58.538Z,101565.22
2023-04-29T09:43:01.263Z,101570.31
2023-04-29T09:46:02.920Z,101563.84
2023-04-29T09:49:06.693Z,101572.63
2023-04-29T09:52:13.499Z,101574.19
2023-04-29T09:55:16.032Z,101575.88
2023-04-29T09:58:30.223Z,101578.16
2023-04-29T10:01:32.126Z,101584.66
2023-04-29T10:04:36.681Z,101595.91
2023-04-29T10:07:41.106Z,101589.00
2023-04-29T10:10:43.904Z,101592.19
2023-04-29T10:13:46.196Z,101591.47
2023-04-29T10:17:04.002Z,101596.94
2023-04-29T10:20:06.432Z,101594.38
2023-04-29T10:23:10.961Z,101603.31
2023-04-29T10:26:14.161Z,101604.09
2023-04-29T10:29:17.537Z,101606.19
2023-04-29T10:32:21.984Z,101610.09
2023-04-29T10:35:25.856Z,101618.91
2023-04-29T10:38:50.870Z,101609.72
2023-04-29T10:41:53.624Z,101615.41
2023-04-29T10:45:32.727Z,101613.81
2023-04-29T10:48:34.305Z,101626.50
2023-04-29T10:51:40.418Z,101627.72
2023-04-29T10:54:42.547Z,101635.41
2023-04-29T10:57:45.130Z,101639.59
2023-04-29T11:00:47.272Z,101621.34
2023-04-29T11:03:58.865Z,101622.06
2023-04-29T11:07:01.172Z,101628.94
2023-04-29T11:10:03.316Z,101627.34
2023-04-29T11:13:23.380Z,101630.03
2023-04-29T11:16:29.381Z,101624.41
2023-04-29T11:19:35.958Z,101636.75
2023-04-29T11:22:38.183Z,101627.09
2023-04-29T11:25:39.765Z,101645.81
2023-04-29T11:28:42.669Z,101638.84
2023-04-29T11:31:44.299Z,101637.88
2023-04-29T11:34:46.105Z,101638.47
2023-04-29T11:37:47.745Z,101636.88
2023-04-29T11:40:50.152Z,101642.09
2023-04-29T11:44:01.164Z,101645.03
2023-04-29T11:47:04.393Z,101660.09
2023-04-29T11:50:08.943Z,101653.50
2023-04-29T11:53:10.778Z,101656.91
2023-04-29T11:56:12.669Z,101647.50
2023-04-29T11:59:14.294Z,101648.97
2023-04-29T12:02:15.968Z,101641.25
2023-04-29T12:05:19.321Z,101651.16
2023-04-29T12:08:26.503Z,101657.97
2023-04-29T12:11:28.974Z,101660.66
2023-04-29T12:14:30.682Z,101663.50
2023-04-29T12:17:32.862Z,101674.63
2023-04-29T12:20:34.918Z,101674.88
2023-04-29T12:23:37.083Z,101674.88
2023-04-29T12:26:40.431Z,101682.09
2023-04-29T12:29:42.171Z,101684.44
2023-04-29T12:32:45.315Z,101686.41
2023-04-29T12:35:46.929Z,101688.09
2023-04-29T12:38:49.368Z,101691.06
2023-04-29T12:41:56.070Z,101689.19
2023-04-29T12:44:58.272Z,101692.03
2023-04-29T12:48:01.610Z,101694.97
2023-04-29T12:51:03.651Z,101691.78
2023-04-29T12:54:07.293Z,101696.81
2023-04-29T12:57:12.219Z,101697.66
2023-04-29T13:00:14.729Z,101700.09
2023-04-29T13:03:17.459Z,101691.31
2023-04-29T13:06:20.704Z,101695.09
2023-04-29T13:09:22.247Z,101700.47
2023-04-29T13:12:23.826Z,101697.78
2023-04-29T13:15:26.150Z,101710.72
2023-04-29T13:18:27.791Z,101704.75
2023-04-29T13:21:30.354Z,101712.09
2023-04-29T13:24:33.116Z,101705.41
2023-04-29T13:27:35.017Z,101705.69
2023-04-29T13:30:36.959Z,101712.16
2023-04-29T13:33:40.210Z,101709.78
2023-04-29T13:36:41.903Z,101711.75
2023-04-29T13:39:45.763Z,101707.81
2023-04-29T13:42:50.791Z,101712.78
2023-04-29T13:46:01.154Z,101718.28
2023-04-29T13:49:28.824Z,101718.16
2023-04-29T13:53:18.155Z,101725.25
2023-04-29T13:56:23.530Z,101724.97
2023-04-29T13:59:36.193Z,101726.03
2023-04-29T14:02:30.568Z,101732.94
2023-04-29T14:05:32.392Z,101724.50
2023-04-29T14:08:34.081Z,101735.47
2023-04-29T14:11:36.981Z,101734.72
2023-04-29T14:14:38.716Z,101736.78
2023-04-29T14:17:40.685Z,101750.19
2023-04-29T14:20:42.273Z,101751.47
2023-04-29T14:23:43.853Z,101758.38
2023-04-29T14:26:45.452Z,101756.13
2023-04-29T14:29:47.072Z,101760.13
2023-04-29T14:32:48.666Z,101758.84
2023-04-29T14:35:50.198Z,101767.81
2023-04-29T14:38:51.838Z,101769.00
2023-04-29T14:41:53.393Z,101768.69
2023-04-29T14:44:55.229Z,101768.16
2023-04-29T14:47:56.893Z,101771.28
2023-04-29T14:50:58.566Z,101772.56
2023-04-29T14:54:00.098Z,101784.88
2023-04-29T14:57:02.305Z,101772.13
2023-04-29T15:00:04.617Z,101782.69
2023-04-29T15:03:06.294Z,101781.81
2023-04-29T15:06:07.964Z,101789.72
2023-04-29T15:09:09.856Z,101792.25
2023-04-29T15:12:11.449Z,101795.44
2023-04-29T15:15:13.023Z,101803.25
2023-04-29T15:18:14.801Z,101805.22
2023-04-29T15:21:16.616Z,101805.22
2023-04-29T15:24:18.922Z,101805.06
2023-04-29T15:27:21.509Z,101813.88
2023-04-29T15:30:23.122Z,101814.53
2023-04-29T15:33:24.655Z,101812.53
2023-04-29T15:36:32.182Z,101816.56
2023-04-29T15:39:33.866Z,101810.81
2023-04-29T15:42:35.440Z,101823.63
2023-04-29T15:45:37.322Z,101825.72
2023-04-29T15:48:38.848Z,101817.22
2023-04-29T15:51:40.458Z,101817.50
2023-04-29T15:54:42.171Z,101832.09
2023-04-29T15:57:43.737Z,101828.91
2023-04-29T16:00:45.529Z,101832.69
2023-04-29T16:03:47.112Z,101832.13
2023-04-29T16:06:48.876Z,101827.81
2023-04-29T16:09:50.454Z,101828.09
2023-04-29T16:12:52.023Z,101838.19
2023-04-29T16:15:54.651Z,101831.50
2023-04-29T16:18:57.165Z,101837.03
2023-04-29T16:21:58.801Z,101839.69
2023-04-29T16:25:00.551Z,101841.31
2023-04-29T16:28:02.306Z,101839.69
2023-04-29T16:31:04.125Z,101838.28
2023-04-29T16:34:05.783Z,101840.41
2023-04-29T16:37:12.709Z,101836.50
2023-04-29T16:40:14.423Z,101844.69
2023-04-29T16:43:16.550Z,101842.06
2023-04-29T16:46:18.234Z,101851.22
2023-04-29T16:49:25.816Z,101840.72
2023-04-29T16:52:27.396Z,101844.63
2023-04-29T16:55:29.104Z,101849.44
2023-04-29T16:58:31.206Z,101852.47
2023-04-29T17:01:32.857Z,101849.25
2023-04-29T17:04:34.524Z,101848.75
2023-04-29T17:07:36.485Z,101851.75
2023-04-29T17:10:38.371Z,101849.31
2023-04-29T17:13:40.004Z,101857.59
2023-04-29T17:16:41.857Z,101857.91
2023-04-29T17:19:43.797Z,101859.97
2023-04-29T17:22:45.513Z,101869.88
2023-04-29T17:25:47.112Z,101864.63
2023-04-29T17:28:48.716Z,101865.50
2023-04-29T17:32:01.766Z,101868.00
2023-04-29T17:35:03.558Z,101868.91
2023-04-29T17:38:05.188Z,101869.94
2023-04-29T17:41:06.856Z,101879.41
2023-04-29T17:44:09.040Z,101879.84
2023-04-29T17:47:11.142Z,101882.28
2023-04-29T17:50:12.748Z,101886.28
2023-04-29T17:53:14.367Z,101890.22
2023-04-29T17:56:16.202Z,101894.94
2023-04-29T17:59:17.728Z,101903.34
2023-04-29T18:02:19.466Z,101902.13
2023-04-29T18:05:21.291Z,101901.69
2023-04-29T18:08:23.056Z,101907.31
2023-04-29T18:11:27.625Z,101910.28
2023-04-29T18:14:30.658Z,101914.22
2023-04-29T18:17:33.719Z,101912.72
2023-04-29T18:20:42.465Z,101913.13
2023-04-29T18:23:44.062Z,101919.78
2023-04-29T18:26:45.734Z,101923.75
2023-04-29T18:29:47.279Z,101918.09
2023-04-29T18:32:52.042Z,101916.72
2023-04-29T18:35:54.710Z,101917.25
2023-04-29T18:38:56.968Z,101924.75
2023-04-29T18:41:58.515Z,101926.78
2023-04-29T18:45:00.057Z,101934.25
2023-04-29T18:48:06.774Z,101930.03
2023-04-29T18:51:08.455Z,101933.75
2023-04-29T18:54:10.035Z,101942.53
2023-04-29T18:57:12.209Z,101937.56
2023-04-29T19:00:15.417Z,101947.69
2023-04-29T19:03:17.391Z,101943.69
2023-04-29T19:06:19.380Z,101947.41
2023-04-29T19:09:21.073Z,101955.22
2023-04-29T19:12:22.640Z,101949.16
2023-04-29T19:15:27.950Z,101955.63
2023-04-29T19:18:29.710Z,101969.28
2023-04-29T19:21:33.463Z,101955.41
2023-04-29T19:24:37.046Z,101963.72
2023-04-29T19:27:45.008Z,101964.84
2023-04-29T19:30:46.731Z,101961.53
2023-04-29T19:33:48.333Z,101972.47
2023-04-29T19:36:50.627Z,101977.03
2023-04-29T19:39:52.882Z,101972.81
2023-04-29T19:42:54.590Z,101981.00
2023-04-29T19:45:56.316Z,101972.31
2023-04-29T19:48:57.893Z,101976.91
2023-04-29T19:51:59.503Z,101974.44
2023-04-29T19:55:01.006Z,101979.97
2023-04-29T19:58:02.593Z,101983.63
2023-04-29T20:01:04.205Z,101985.59
2023-04-29T20:04:06.081Z,101984.84
2023-04-29T20:07:07.819Z,101985.84
2023-04-29T20:10:10.003Z,101994.91
2023-04-29T20:13:11.654Z,101987.13
2023-04-29T20:16:13.217Z,101987.28
2023-04-29T20:19:15.292Z,101993.56
2023-04-29T20:22:17.003Z,101999.09
2023-04-29T20:25:18.850Z,101994.00
2023-04-29T20:28:20.393Z,101995.94
2023-04-29T20:31:22.028Z,101994.31
2023-04-29T20:34:23.680Z,101998.03
2023-04-29T20:37:25.857Z,102003.53
2023-04-29T20:40:27.437Z,102005.44
2023-04-29T20:43:29.287Z,102004.81
2023-04-29T20:46:30.963Z,102010.31
2023-04-29T20:49:32.691Z,102012.28
2023-04-29T20:52:35.186Z,102020.47
2023-04-29T20:55:37.966Z,102011.03
2023-04-29T20:58:39.552Z,102020.03
2023-04-29T21:01:41.222Z,102017.63
2023-04-29T21:04:42.900Z,102019.59
2023-04-29T21:07:44.590Z,102018.03
2023-04-29T21:10:46.234Z,102014.75
2023-04-29T21:13:50.291Z,102012.28
2023-04-29T21:16:52.225Z,102020.34
2023-04-29T21:19:54.094Z,102017.94
2023-04-29T21:22:56.035Z,102026.94
2023-04-29T21:25:57.562Z,102023.59
2023-04-29T21:28:59.130Z,102026.47
2023-04-29T21:32:00.701Z,102029.28
2023-04-29T21:35:02.417Z,102032.16
2023-04-29T21:38:04.007Z,102032.31
2023-04-29T21:41:06.297Z,102026.31
2023-04-29T21:44:07.999Z,102035.31
2023-04-29T21:47:09.601Z,102038.00
2023-04-29T21:50:11.803Z,102024.91
2023-04-29T21:53:16.142Z,102026.75
2023-04-29T21:56:18.437Z,102034.81
2023-04-29T21:59:20.003Z,102031.34
2023-04-29T22:02:25.698Z,102033.19
2023-04-29T22:05:27.257Z,102042.03
2023-04-29T22:08:28.939Z,102046.53
2023-04-29T22:11:30.684Z,102042.97
2023-04-29T22:14:32.260Z,102043.94
2023-04-29T22:17:33.875Z,102040.59
2023-04-29T22:20:35.862Z,102051.38
2023-04-29T22:23:37.626Z,102053.31
2023-04-29T22:26:39.157Z,102043.88
2023-04-29T22:29:40.790Z,102051.22
2023-04-29T22:32:42.413Z,102055.94
2023-04-29T22:35:44.209Z,102054.38
2023-04-29T22:38:45.808Z,102062.66
2023-04-29T22:41:47.397Z,102062.91
2023-04-29T22:44:49.023Z,102067.56
2023-04-29T22:47:50.568Z,102065.16
2023-04-29T22:50:59.367Z,102068.91
2023-04-29T22:54:01.081Z,102073.56
2023-04-29T22:57:04.092Z,102071.09
2023-04-29T23:00:06.635Z,102064.31
2023-04-29T23:03:08.226Z,102061.91
2023-04-29T23:06:09.842Z,102070.03
2023-04-29T23:09:11.740Z,102071.13
2023-04-29T23:12:13.276Z,102071.28
2023-04-29T23:15:14.811Z,102069.66
2023-04-29T23:18:16.507Z,102073.28
2023-04-29T23:21:18.043Z,102079.59
2023-04-29T23:24:19.580Z,102078.84
2023-04-29T23:27:21.104Z,102075.53
2023-04-29T23:30:22.826Z,102085.31
2023-04-29T23:33:24.366Z,102081.06
2023-04-29T23:36:25.997Z,102078.53
2023-04-29T23:39:27.843Z,102078.72
2023-04-29T23:42:29.443Z,102082.41
2023-04-29T23:45:31.030Z,102086.88
2023-04-29T23:48:32.673Z,102082.59
2023-04-29T23:51:34.317Z,102080.97
2023-04-29T23:54:36.179Z,102084.59
2023-04-29T23:57:37.790Z,102091.69
